createdAt,value
2019-03-17T00:01:28.006Z,22.80
2019-03-17T00:04:07.508Z,16.77
2019-03-17T00:06:36.361Z,15.53
2019-03-17T00:09:07.627Z,14.50
2019-03-17T00:11:36.530Z,11.60
2019-03-17T00:14:14.524Z,13.73
2019-03-17T00:16:43.380Z,13.57
2019-03-17T00:19:12.158Z,14.33
2019-03-17T00:21:42.192Z,13.37
2019-03-17T00:24:22.151Z,14.83
2019-03-17T00:26:51.128Z,13.10
2019-03-17T00:29:20.116Z,14.17
2019-03-17T00:31:51.272Z,10.83
2019-03-17T00:34:29.419Z,12.67
2019-03-17T00:36:59.349Z,13.47
2019-03-17T00:39:28.296Z,16.07
2019-03-17T00:41:57.288Z,10.53
2019-03-17T00:44:35.327Z,12.33
2019-03-17T00:47:04.012Z,12.00
2019-03-17T00:49:32.972Z,12.63
2019-03-17T00:52:05.685Z,9.00
2019-03-17T00:54:44.914Z,12.83
2019-03-17T00:57:16.925Z,9.23
2019-03-17T00:59:45.662Z,9.53
2019-03-17T01:02:17.056Z,9.77
2019-03-17T01:04:56.473Z,9.77
2019-03-17T01:07:25.369Z,10.53
2019-03-17T01:09:54.108Z,11.60
2019-03-17T01:12:22.762Z,8.83
2019-03-17T01:15:00.457Z,10.07
2019-03-17T01:17:29.121Z,10.23
2019-03-17T01:19:59.386Z,10.30
2019-03-17T01:22:28.286Z,11.63
2019-03-17T01:25:08.132Z,10.80
2019-03-17T01:27:36.755Z,10.67
2019-03-17T01:30:07.063Z,11.60
2019-03-17T01:32:38.589Z,9.27
2019-03-17T01:35:16.891Z,11.07
2019-03-17T01:37:45.594Z,10.73
2019-03-17T01:40:14.689Z,11.47
2019-03-17T01:42:43.636Z,10.77
2019-03-17T01:47:59.576Z,9.93
2019-03-17T01:50:28.725Z,11.20
2019-03-17T01:52:59.394Z,13.03
2019-03-17T01:55:37.360Z,13.27
2019-03-17T01:58:06.268Z,11.53
2019-03-17T02:00:35.464Z,13.10
2019-03-17T02:03:04.827Z,12.60
2019-03-17T02:05:43.730Z,8.97
2019-03-17T02:08:13.184Z,13.13
2019-03-17T02:10:41.881Z,13.13
2019-03-17T02:13:10.619Z,13.80
2019-03-17T02:15:48.783Z,12.63
2019-03-17T02:18:17.514Z,9.73
2019-03-17T02:20:46.207Z,9.77
2019-03-17T02:23:14.974Z,10.33
2019-03-17T02:25:53.490Z,9.73
2019-03-17T02:28:22.422Z,9.07
2019-03-17T02:30:51.176Z,9.40
2019-03-17T02:33:22.727Z,11.93
2019-03-17T02:36:00.464Z,9.40
2019-03-17T02:38:29.196Z,11.03
2019-03-17T02:40:58.130Z,9.77
2019-03-17T02:43:26.797Z,10.43
2019-03-17T02:46:07.126Z,10.10
2019-03-17T02:48:38.610Z,12.43
2019-03-17T02:51:07.415Z,11.27
2019-03-17T02:53:37.599Z,10.13
2019-03-17T02:56:15.663Z,10.87
2019-03-17T02:58:44.946Z,10.33
2019-03-17T03:01:14.549Z,9.03
2019-03-17T03:03:46.227Z,11.23
2019-03-17T03:06:24.696Z,7.80
2019-03-17T03:08:53.937Z,9.30
2019-03-17T03:11:23.001Z,10.60
2019-03-17T03:13:52.207Z,11.10
2019-03-17T03:16:30.634Z,7.27
2019-03-17T03:19:05.116Z,11.23
2019-03-17T03:21:33.814Z,9.37
2019-03-17T03:24:02.953Z,9.63
2019-03-17T03:26:41.772Z,7.47
2019-03-17T03:29:10.963Z,8.47
2019-03-17T03:31:39.903Z,7.27
2019-03-17T03:34:08.988Z,9.97
2019-03-17T03:36:48.011Z,10.37
2019-03-17T03:39:16.764Z,7.97
2019-03-17T03:41:45.754Z,8.33
2019-03-17T03:44:17.827Z,5.80
2019-03-17T03:46:58.079Z,7.37
2019-03-17T03:49:27.459Z,6.87
2019-03-17T03:51:56.115Z,6.50
2019-03-17T03:54:25.062Z,5.20
2019-03-17T03:57:04.159Z,5.43
2019-03-17T03:59:33.127Z,5.60
2019-03-17T04:02:01.781Z,5.63
2019-03-17T04:04:31.115Z,4.37
2019-03-17T04:07:08.705Z,6.23
2019-03-17T04:09:37.734Z,8.57
2019-03-17T04:12:06.393Z,4.53
2019-03-17T04:14:35.660Z,5.17
2019-03-17T04:19:49.516Z,4.53
2019-03-17T04:22:19.223Z,4.20
2019-03-17T04:24:47.891Z,5.17
2019-03-17T04:27:25.464Z,3.77
2019-03-17T04:29:54.156Z,4.40
2019-03-17T04:32:23.120Z,5.97
2019-03-17T04:34:51.864Z,4.53
2019-03-17T04:37:29.711Z,3.53
2019-03-17T04:40:01.743Z,5.50
2019-03-17T04:42:30.667Z,3.33
2019-03-17T04:44:59.701Z,4.97
2019-03-17T04:47:37.753Z,4.03
2019-03-17T04:50:08.569Z,4.50
2019-03-17T04:52:37.228Z,3.57
2019-03-17T04:55:08.772Z,4.07
2019-03-17T04:57:46.779Z,3.67
2019-03-17T05:00:15.487Z,4.50
2019-03-17T05:02:44.211Z,3.57
2019-03-17T05:05:13.250Z,5.40
2019-03-17T05:07:54.519Z,4.97
2019-03-17T05:10:23.575Z,4.13
2019-03-17T05:12:53.067Z,4.30
2019-03-17T05:15:22.108Z,6.60
2019-03-17T05:18:00.071Z,4.20
2019-03-17T05:20:29.493Z,3.57
2019-03-17T05:23:00.358Z,3.63
2019-03-17T05:25:32.824Z,3.80
2019-03-17T05:28:10.476Z,4.53
2019-03-17T05:30:39.185Z,4.63
2019-03-17T05:33:07.967Z,5.50
2019-03-17T05:35:39.947Z,3.53
2019-03-17T05:38:17.778Z,8.87
2019-03-17T05:40:46.751Z,4.57
2019-03-17T05:43:15.800Z,3.77
2019-03-17T05:45:44.782Z,5.50
2019-03-17T05:48:24.512Z,4.00
2019-03-17T05:50:53.552Z,3.80
2019-03-17T05:53:22.555Z,4.10
2019-03-17T05:55:53.404Z,4.60
2019-03-17T05:58:31.242Z,4.27
2019-03-17T06:01:00.192Z,3.90
2019-03-17T06:03:29.705Z,3.77
2019-03-17T06:06:01.598Z,5.60
2019-03-17T06:08:39.674Z,3.17
2019-03-17T06:11:08.656Z,5.33
2019-03-17T06:13:38.246Z,4.57
2019-03-17T06:16:07.070Z,3.87
2019-03-17T06:18:45.221Z,3.67
2019-03-17T06:21:14.167Z,3.20
2019-03-17T06:23:43.335Z,4.37
2019-03-17T06:26:12.561Z,4.70
2019-03-17T06:28:51.979Z,4.20
2019-03-17T06:31:23.954Z,2.50
2019-03-17T06:33:53.287Z,2.83
2019-03-17T06:36:22.415Z,3.50
2019-03-17T06:41:36.080Z,3.57
2019-03-17T06:44:06.548Z,2.57
2019-03-17T06:46:35.712Z,2.50
2019-03-17T06:51:51.095Z,2.77
2019-03-17T06:54:23.586Z,2.63
2019-03-17T06:56:54.736Z,2.20
2019-03-17T06:59:23.268Z,3.47
2019-03-17T07:01:54.311Z,4.00
2019-03-17T07:04:23.570Z,2.97
2019-03-17T07:06:52.303Z,2.73
2019-03-17T07:09:30.308Z,3.63
2019-03-17T07:11:59.579Z,4.67
2019-03-17T07:14:28.881Z,4.50
2019-03-17T07:16:59.695Z,3.33
2019-03-17T07:19:49.855Z,2.73
2019-03-17T07:22:19.667Z,2.57
2019-03-17T07:24:48.389Z,2.63
2019-03-17T07:27:17.648Z,4.80
2019-03-17T07:29:56.067Z,5.37
2019-03-17T07:32:25.151Z,4.50
2019-03-17T07:34:54.214Z,3.60
2019-03-17T07:37:23.169Z,3.67
2019-03-17T07:39:52.316Z,6.43
2019-03-17T07:42:21.081Z,6.00
2019-03-17T07:44:50.128Z,4.37
2019-03-17T07:47:19.228Z,4.00
2019-03-17T07:49:47.964Z,3.17
2019-03-17T07:52:16.981Z,2.50
2019-03-17T07:54:45.981Z,2.47
2019-03-17T07:57:16.641Z,4.50
2019-03-17T07:59:54.909Z,7.10
2019-03-17T08:02:23.899Z,3.43
2019-03-17T08:04:54.470Z,5.33
2019-03-17T08:07:23.353Z,4.93
2019-03-17T08:10:07.881Z,3.13
2019-03-17T08:12:32.287Z,4.07
2019-03-17T08:15:01.578Z,5.43
2019-03-17T08:17:31.825Z,4.57
2019-03-17T08:20:00.689Z,5.03
2019-03-17T08:22:33.287Z,5.63
2019-03-17T08:25:02.231Z,10.67
2019-03-17T08:27:31.436Z,6.97
2019-03-17T08:30:00.659Z,5.93
2019-03-17T08:32:29.455Z,4.77
2019-03-17T08:34:58.590Z,6.20
2019-03-17T08:37:27.975Z,3.63
2019-03-17T08:40:09.101Z,4.17
2019-03-17T08:42:38.826Z,3.37
2019-03-17T08:45:09.166Z,3.43
2019-03-17T09:03:43.424Z,1.67
2019-03-17T09:06:11.612Z,1.95
2019-03-17T09:08:40.429Z,2.00
2019-03-17T09:11:18.146Z,1.70
2019-03-17T09:13:47.180Z,1.50
2019-03-17T09:16:15.971Z,1.52
2019-03-17T09:18:44.763Z,1.72
2019-03-17T09:23:57.086Z,1.25
2019-03-17T09:26:25.920Z,1.30
2019-03-17T09:28:55.069Z,2.90
2019-03-17T09:31:33.121Z,1.27
2019-03-17T09:34:03.559Z,1.35
2019-03-17T09:36:32.490Z,1.80
2019-03-17T09:39:04.264Z,2.13
2019-03-17T09:44:16.593Z,2.93
2019-03-17T09:46:45.441Z,2.57
2019-03-17T09:49:16.856Z,1.37
2019-03-17T09:51:45.631Z,2.07
2019-03-17T10:29:00.145Z,1.63
2019-03-17T13:36:55.496Z,11.63
2019-03-17T13:39:39.650Z,6.80
2019-03-17T13:42:08.645Z,6.43
2019-03-17T13:44:37.622Z,13.07
2019-03-17T13:47:07.533Z,6.60
2019-03-17T13:49:49.577Z,10.67
2019-03-17T13:52:20.364Z,9.17
2019-03-17T13:54:51.168Z,5.03
2019-03-17T13:57:21.012Z,7.07
2019-03-17T14:00:01.813Z,7.80
2019-03-17T14:02:36.984Z,7.13
2019-03-17T14:05:06.252Z,10.10
2019-03-17T14:07:36.190Z,4.87
2019-03-17T14:10:16.413Z,7.33
2019-03-17T14:12:45.646Z,11.77
2019-03-17T14:15:17.581Z,8.87
2019-03-17T14:17:46.553Z,6.17
2019-03-17T14:23:00.163Z,7.03
2019-03-17T14:25:29.209Z,8.73
2019-03-17T14:27:58.025Z,8.10
2019-03-17T14:30:37.457Z,7.10
2019-03-17T14:33:07.701Z,7.77
2019-03-17T14:35:36.744Z,4.63
2019-03-17T14:38:06.521Z,3.40
2019-03-17T14:40:53.226Z,5.90
2019-03-17T14:43:17.778Z,3.60
2019-03-17T14:45:47.156Z,2.90
2019-03-17T14:48:15.922Z,7.03
2019-03-17T14:50:53.710Z,1.53
2019-03-17T14:53:22.418Z,1.40
2019-03-17T14:55:51.258Z,1.30
2019-03-17T14:58:20.150Z,1.63
2019-03-17T15:00:58.427Z,1.23
2019-03-17T15:03:30.085Z,0.57
2019-03-17T15:06:00.606Z,2.10
2019-03-17T15:08:30.914Z,0.40
2019-03-17T15:11:08.926Z,1.40
2019-03-17T15:13:37.646Z,0.27
2019-03-17T15:16:07.573Z,0.40
2019-03-17T15:18:36.823Z,0.40
2019-03-17T15:23:51.601Z,0.80
2019-03-17T15:26:22.494Z,0.30
2019-03-17T15:28:52.794Z,0.50
2019-03-17T15:31:30.793Z,0.53
2019-03-17T15:34:02.469Z,0.50
2019-03-17T15:36:33.805Z,1.27
2019-03-17T15:39:02.611Z,1.50
2019-03-17T15:41:40.169Z,1.33
2019-03-17T15:44:11.877Z,5.87
2019-03-17T15:46:40.569Z,1.70
2019-03-17T15:49:09.337Z,2.90
2019-03-17T15:51:48.477Z,1.40
2019-03-17T15:54:17.306Z,2.17
2019-03-17T15:56:46.158Z,1.47
2019-03-17T15:59:16.048Z,3.03
2019-03-17T16:04:27.822Z,1.30
2019-03-17T16:06:56.723Z,1.90
2019-03-17T16:09:28.495Z,1.63
2019-03-17T16:12:05.685Z,0.60
2019-03-17T16:14:36.499Z,0.93
2019-03-17T16:17:06.835Z,0.40
2019-03-17T16:19:37.278Z,2.13
2019-03-17T16:22:16.854Z,0.80
2019-03-17T16:24:45.934Z,1.83
2019-03-17T16:27:15.814Z,1.33
2019-03-17T16:29:47.499Z,2.57
2019-03-17T16:35:03.540Z,2.97
2019-03-17T16:37:32.539Z,1.37
2019-03-17T16:40:01.621Z,1.10
2019-03-17T16:42:39.579Z,1.80
2019-03-17T16:45:08.875Z,1.03
2019-03-17T16:47:38.938Z,0.87
2019-03-17T16:50:14.094Z,0.80
2019-03-17T16:52:54.994Z,0.77
2019-03-17T16:55:24.331Z,1.60
2019-03-17T16:57:53.645Z,0.83
2019-03-17T17:00:22.819Z,1.93
2019-03-17T17:03:10.986Z,1.77
2019-03-17T17:05:35.568Z,1.40
2019-03-17T17:08:04.866Z,1.07
2019-03-17T17:10:38.972Z,1.10
2019-03-17T17:13:17.198Z,1.13
2019-03-17T17:15:46.346Z,1.00
2019-03-17T17:18:17.747Z,0.87
2019-03-17T17:20:59.783Z,1.40
2019-03-17T17:23:30.913Z,0.60
2019-03-17T17:26:06.056Z,1.23
2019-03-17T17:28:36.603Z,1.10
2019-03-17T17:31:33.138Z,0.70
2019-03-17T17:33:54.346Z,1.43
2019-03-17T17:36:43.138Z,0.73
2019-03-17T17:40:11.486Z,1.13
2019-03-17T17:42:56.736Z,1.80
2019-03-17T17:45:26.298Z,1.23
2019-03-17T17:47:55.951Z,4.57
2019-03-17T17:50:29.478Z,2.33
2019-03-17T17:55:48.658Z,3.77
2019-03-17T17:58:18.283Z,2.93
2019-03-17T18:00:48.210Z,1.97
2019-03-17T18:03:32.770Z,1.30
2019-03-17T18:06:01.756Z,4.10
2019-03-17T18:08:31.028Z,0.80
2019-03-17T18:11:00.446Z,2.00
2019-03-17T18:13:38.462Z,1.20
2019-03-17T18:16:07.486Z,1.93
2019-03-17T18:18:37.245Z,2.40
2019-03-17T18:21:09.237Z,4.20
2019-03-17T18:26:23.675Z,1.53
2019-03-17T18:28:55.205Z,1.50
2019-03-17T18:31:24.221Z,2.30
2019-03-17T18:34:03.150Z,3.37
2019-03-17T18:36:31.908Z,1.93
2019-03-17T18:39:01.025Z,2.20
2019-03-17T18:41:30.101Z,1.37
2019-03-17T18:44:07.978Z,2.33
2019-03-17T18:46:39.792Z,2.30
2019-03-17T18:49:08.488Z,2.13
2019-03-17T18:51:39.498Z,2.27
2019-03-17T18:54:21.617Z,1.43
2019-03-17T18:56:50.891Z,2.00
2019-03-17T18:59:20.206Z,2.83
2019-03-17T19:01:49.050Z,1.67
2019-03-17T19:04:27.029Z,1.70
2019-03-17T19:06:55.865Z,2.57
2019-03-17T19:09:25.423Z,1.73
2019-03-17T19:11:55.312Z,3.97
2019-03-17T19:14:33.404Z,1.50
2019-03-17T19:17:02.240Z,2.87
2019-03-17T19:19:31.073Z,3.13
2019-03-17T19:22:01.322Z,1.40
2019-03-17T19:27:21.370Z,3.30
2019-03-17T19:29:53.023Z,2.73
2019-03-17T19:32:23.215Z,2.20
2019-03-17T19:37:38.217Z,2.33
2019-03-17T19:40:07.745Z,2.67
2019-03-17T19:42:39.181Z,5.00
2019-03-17T19:45:17.171Z,3.03
2019-03-17T19:47:45.894Z,2.80
2019-03-17T19:50:17.624Z,5.73
2019-03-17T19:52:46.362Z,2.77
2019-03-17T19:55:24.639Z,2.83
2019-03-17T19:57:53.487Z,3.97
2019-03-17T20:00:25.259Z,2.47
2019-03-17T20:02:54.288Z,2.60
2019-03-17T20:08:06.613Z,3.63
2019-03-17T20:10:36.500Z,3.00
2019-03-17T20:13:11.437Z,5.73
2019-03-17T20:15:45.796Z,3.03
2019-03-17T20:18:17.650Z,2.17
2019-03-17T20:20:47.715Z,2.33
2019-03-17T20:23:16.420Z,2.63
2019-03-17T20:26:00.777Z,3.00
2019-03-17T20:28:29.653Z,3.03
2019-03-17T20:30:58.391Z,2.77
2019-03-17T20:33:30.199Z,2.40
2019-03-17T20:36:08.308Z,2.30
2019-03-17T20:38:36.984Z,2.20
2019-03-17T20:41:06.053Z,3.03
2019-03-17T20:43:35.382Z,2.83
2019-03-17T20:46:13.987Z,4.17
2019-03-17T20:48:42.872Z,4.13
2019-03-17T20:51:12.913Z,2.33
2019-03-17T20:53:41.760Z,2.27
2019-03-17T20:56:11.345Z,3.33
2019-03-17T20:58:40.587Z,4.20
2019-03-17T21:01:09.282Z,3.17
2019-03-17T21:03:38.312Z,4.30
2019-03-17T21:06:16.508Z,3.50
2019-03-17T21:08:45.270Z,5.80
2019-03-17T21:11:17.042Z,4.43
2019-03-17T21:13:47.000Z,2.67
2019-03-17T21:16:16.078Z,3.10
2019-03-17T21:18:45.198Z,4.40
2019-03-17T21:21:15.427Z,4.80
2019-03-17T21:23:46.332Z,2.63
2019-03-17T21:26:23.892Z,4.17
2019-03-17T21:28:53.393Z,5.33
2019-03-17T21:31:22.244Z,7.17
2019-03-17T21:33:52.763Z,3.50
2019-03-17T21:39:07.324Z,5.03
2019-03-17T21:41:36.241Z,4.00
2019-03-17T21:44:05.018Z,6.13
2019-03-17T21:46:43.252Z,4.73
2019-03-17T21:49:12.027Z,4.40
2019-03-17T21:51:40.772Z,5.00
2019-03-17T21:54:09.451Z,4.20
2019-03-17T21:59:22.602Z,3.90
2019-03-17T22:01:51.930Z,3.90
2019-03-17T22:04:22.422Z,5.40
2019-03-17T22:07:00.646Z,3.73
2019-03-17T22:09:29.522Z,6.60
2019-03-17T22:11:58.541Z,4.23
2019-03-17T22:14:27.244Z,9.33
2019-03-17T22:17:05.434Z,5.23
2019-03-17T22:19:34.124Z,3.50
2019-03-17T22:22:02.820Z,3.10
2019-03-17T22:24:31.474Z,4.33
2019-03-17T22:27:02.532Z,4.10
2019-03-17T22:29:31.205Z,4.03
2019-03-17T22:32:01.285Z,2.90
2019-03-17T22:34:33.119Z,4.20
2019-03-17T22:37:11.255Z,3.00
2019-03-17T22:39:39.985Z,2.80
2019-03-17T22:42:08.665Z,4.30
2019-03-17T22:44:37.572Z,2.83
2019-03-17T22:47:19.701Z,4.73
2019-03-17T22:49:48.625Z,2.80
2019-03-17T22:52:17.569Z,3.07
2019-03-17T22:54:46.261Z,4.20
2019-03-17T22:57:16.176Z,1.90
2019-03-17T22:59:45.898Z,2.13
2019-03-17T23:02:17.081Z,3.63
2019-03-17T23:04:45.809Z,2.67
2019-03-17T23:07:25.874Z,4.13
2019-03-17T23:09:54.641Z,4.63
2019-03-17T23:12:24.492Z,2.30
2019-03-17T23:14:53.217Z,1.70
2019-03-17T23:17:32.296Z,2.10
2019-03-17T23:20:06.049Z,3.27
2019-03-17T23:23:49.974Z,3.17
2019-03-17T23:29:39.354Z,4.63
2019-03-17T23:32:34.011Z,4.33
2019-03-17T23:35:02.906Z,3.03
2019-03-17T23:37:40.573Z,3.37
2019-03-17T23:40:09.799Z,2.83
2019-03-17T23:42:38.668Z,6.30
2019-03-17T23:45:07.694Z,4.07
2019-03-17T23:48:05.785Z,5.40
2019-03-17T23:51:11.348Z,3.03
2019-03-17T23:53:40.839Z,3.57
2019-03-17T23:56:18.772Z,3.23
2019-03-17T23:58:47.524Z,4.80
